sensor_id;sensor_type;location;lat;lon;timestamp;P1;durP1;ratioP1;P2;durP2;ratioP2
16173;SDS011;14031;50.158;8.626;2023-01-19T00:00:19;10.37;;;8.33;;
16173;SDS011;14031;50.158;8.626;2023-01-19T00:02:46;10.50;;;7.70;;
16173;SDS011;14031;50.158;8.626;2023-01-19T00:05:14;9.77;;;7.40;;
16173;SDS011;14031;50.158;8.626;2023-01-19T00:07:41;13.97;;;8.77;;
16173;SDS011;14031;50.158;8.626;2023-01-19T00:10:09;16.17;;;7.97;;
16173;SDS011;14031;50.158;8.626;2023-01-19T00:12:36;14.93;;;8.17;;
16173;SDS011;14031;50.158;8.626;2023-01-19T00:15:03;10.80;;;7.90;;
16173;SDS011;14031;50.158;8.626;2023-01-19T00:17:36;9.70;;;8.60;;
16173;SDS011;14031;50.158;8.626;2023-01-19T00:20:05;10.20;;;7.73;;
16173;SDS011;14031;50.158;8.626;2023-01-19T00:22:33;11.33;;;8.37;;
16173;SDS011;14031;50.158;8.626;2023-01-19T00:24:59;12.57;;;7.90;;
16173;SDS011;14031;50.158;8.626;2023-01-19T00:27:26;15.83;;;8.20;;
16173;SDS011;14031;50.158;8.626;2023-01-19T00:29:54;10.60;;;7.73;;
16173;SDS011;14031;50.158;8.626;2023-01-19T00:32:22;11.23;;;7.67;;
16173;SDS011;14031;50.158;8.626;2023-01-19T00:34:50;12.60;;;8.00;;
16173;SDS011;14031;50.158;8.626;2023-01-19T00:37:17;10.77;;;8.17;;
16173;SDS011;14031;50.158;8.626;2023-01-19T00:39:43;12.80;;;7.80;;
16173;SDS011;14031;50.158;8.626;2023-01-19T00:42:10;11.80;;;7.87;;
16173;SDS011;14031;50.158;8.626;2023-01-19T00:44:55;10.47;;;7.90;;
16173;SDS011;14031;50.158;8.626;2023-01-19T00:47:22;11.67;;;7.70;;
16173;SDS011;14031;50.158;8.626;2023-01-19T00:49:50;11.23;;;7.70;;
16173;SDS011;14031;50.158;8.626;2023-01-19T00:52:17;15.60;;;7.70;;
16173;SDS011;14031;50.158;8.626;2023-01-19T00:54:44;10.20;;;7.70;;
16173;SDS011;14031;50.158;8.626;2023-01-19T00:57:10;13.67;;;8.00;;
16173;SDS011;14031;50.158;8.626;2023-01-19T00:59:37;10.47;;;7.37;;
16173;SDS011;14031;50.158;8.626;2023-01-19T01:02:06;12.00;;;8.10;;
16173;SDS011;14031;50.158;8.626;2023-01-19T01:04:33;12.00;;;7.90;;
16173;SDS011;14031;50.158;8.626;2023-01-19T01:07:01;11.77;;;7.57;;
16173;SDS011;14031;50.158;8.626;2023-01-19T01:09:28;9.17;;;7.43;;
16173;SDS011;14031;50.158;8.626;2023-01-19T01:11:55;12.00;;;7.73;;
16173;SDS011;14031;50.158;8.626;2023-01-19T01:14:22;12.10;;;7.13;;
16173;SDS011;14031;50.158;8.626;2023-01-19T01:16:49;9.80;;;7.70;;
16173;SDS011;14031;50.158;8.626;2023-01-19T01:19:15;12.13;;;7.03;;
16173;SDS011;14031;50.158;8.626;2023-01-19T01:21:42;14.87;;;8.00;;
16173;SDS011;14031;50.158;8.626;2023-01-19T01:24:10;12.33;;;8.27;;
16173;SDS011;14031;50.158;8.626;2023-01-19T01:26:37;10.77;;;7.57;;
16173;SDS011;14031;50.158;8.626;2023-01-19T01:29:04;11.03;;;7.03;;
16173;SDS011;14031;50.158;8.626;2023-01-19T01:31:32;10.83;;;7.43;;
16173;SDS011;14031;50.158;8.626;2023-01-19T01:33:59;10.13;;;7.07;;
16173;SDS011;14031;50.158;8.626;2023-01-19T01:36:26;7.73;;;6.83;;
16173;SDS011;14031;50.158;8.626;2023-01-19T01:38:57;8.13;;;6.83;;
16173;SDS011;14031;50.158;8.626;2023-01-19T01:41:25;10.97;;;7.70;;
16173;SDS011;14031;50.158;8.626;2023-01-19T01:43:53;9.93;;;7.93;;
16173;SDS011;14031;50.158;8.626;2023-01-19T01:46:23;8.97;;;7.43;;
16173;SDS011;14031;50.158;8.626;2023-01-19T01:48:51;11.17;;;7.57;;
16173;SDS011;14031;50.158;8.626;2023-01-19T01:51:22;12.83;;;7.20;;
16173;SDS011;14031;50.158;8.626;2023-01-19T01:53:55;15.80;;;7.53;;
16173;SDS011;14031;50.158;8.626;2023-01-19T01:56:38;10.03;;;7.33;;
16173;SDS011;14031;50.158;8.626;2023-01-19T01:59:08;10.07;;;7.30;;
16173;SDS011;14031;50.158;8.626;2023-01-19T02:01:49;9.60;;;7.30;;
16173;SDS011;14031;50.158;8.626;2023-01-19T02:04:34;10.37;;;7.30;;
16173;SDS011;14031;50.158;8.626;2023-01-19T02:07:02;9.30;;;7.17;;
16173;SDS011;14031;50.158;8.626;2023-01-19T02:09:46;13.80;;;7.50;;
16173;SDS011;14031;50.158;8.626;2023-01-19T02:12:33;9.50;;;7.07;;
16173;SDS011;14031;50.158;8.626;2023-01-19T02:15:17;7.93;;;7.13;;
16173;SDS011;14031;50.158;8.626;2023-01-19T02:17:45;8.03;;;6.87;;
16173;SDS011;14031;50.158;8.626;2023-01-19T02:20:12;12.40;;;7.83;;
16173;SDS011;14031;50.158;8.626;2023-01-19T02:22:41;12.50;;;7.50;;
16173;SDS011;14031;50.158;8.626;2023-01-19T02:25:13;9.73;;;7.43;;
16173;SDS011;14031;50.158;8.626;2023-01-19T02:27:41;14.17;;;7.60;;
16173;SDS011;14031;50.158;8.626;2023-01-19T02:30:09;11.80;;;7.70;;
16173;SDS011;14031;50.158;8.626;2023-01-19T02:32:36;8.20;;;6.77;;
16173;SDS011;14031;50.158;8.626;2023-01-19T02:35:04;7.67;;;6.97;;
16173;SDS011;14031;50.158;8.626;2023-01-19T02:37:31;11.03;;;7.23;;
16173;SDS011;14031;50.158;8.626;2023-01-19T02:40:04;9.83;;;7.73;;
16173;SDS011;14031;50.158;8.626;2023-01-19T02:42:39;13.10;;;7.60;;
16173;SDS011;14031;50.158;8.626;2023-01-19T02:45:09;9.07;;;7.37;;
16173;SDS011;14031;50.158;8.626;2023-01-19T02:47:38;8.43;;;7.40;;
16173;SDS011;14031;50.158;8.626;2023-01-19T02:56:22;9.47;;;7.93;;
16173;SDS011;14031;50.158;8.626;2023-01-19T02:59:14;8.93;;;7.33;;
16173;SDS011;14031;50.158;8.626;2023-01-19T03:01:58;11.40;;;7.97;;
16173;SDS011;14031;50.158;8.626;2023-01-19T03:04:39;14.07;;;7.70;;
16173;SDS011;14031;50.158;8.626;2023-01-19T03:07:23;9.90;;;7.50;;
16173;SDS011;14031;50.158;8.626;2023-01-19T03:09:59;8.53;;;7.27;;
16173;SDS011;14031;50.158;8.626;2023-01-19T03:12:33;9.57;;;7.43;;
16173;SDS011;14031;50.158;8.626;2023-01-19T03:15:09;8.00;;;7.27;;
16173;SDS011;14031;50.158;8.626;2023-01-19T03:17:40;11.43;;;7.50;;
16173;SDS011;14031;50.158;8.626;2023-01-19T03:20:10;10.70;;;7.47;;
16173;SDS011;14031;50.158;8.626;2023-01-19T03:22:39;10.93;;;8.40;;
16173;SDS011;14031;50.158;8.626;2023-01-19T03:25:07;11.57;;;7.87;;
16173;SDS011;14031;50.158;8.626;2023-01-19T03:27:34;13.00;;;7.57;;
16173;SDS011;14031;50.158;8.626;2023-01-19T03:30:05;10.17;;;7.63;;
16173;SDS011;14031;50.158;8.626;2023-01-19T03:32:40;9.40;;;7.47;;
16173;SDS011;14031;50.158;8.626;2023-01-19T03:35:10;14.27;;;7.77;;
16173;SDS011;14031;50.158;8.626;2023-01-19T03:37:39;13.07;;;7.70;;
16173;SDS011;14031;50.158;8.626;2023-01-19T03:40:09;9.23;;;7.73;;
16173;SDS011;14031;50.158;8.626;2023-01-19T03:42:37;10.00;;;7.37;;
16173;SDS011;14031;50.158;8.626;2023-01-19T03:45:06;12.67;;;8.13;;
16173;SDS011;14031;50.158;8.626;2023-01-19T03:47:36;10.27;;;7.90;;
16173;SDS011;14031;50.158;8.626;2023-01-19T03:50:05;14.13;;;7.57;;
16173;SDS011;14031;50.158;8.626;2023-01-19T03:52:37;14.87;;;8.57;;
16173;SDS011;14031;50.158;8.626;2023-01-19T03:55:04;10.87;;;8.03;;
16173;SDS011;14031;50.158;8.626;2023-01-19T03:57:31;8.03;;;7.03;;
16173;SDS011;14031;50.158;8.626;2023-01-19T03:59:58;10.77;;;7.30;;
16173;SDS011;14031;50.158;8.626;2023-01-19T04:02:26;12.20;;;8.03;;
16173;SDS011;14031;50.158;8.626;2023-01-19T04:04:53;9.93;;;7.73;;
16173;SDS011;14031;50.158;8.626;2023-01-19T04:07:20;11.83;;;7.07;;
16173;SDS011;14031;50.158;8.626;2023-01-19T04:09:46;11.83;;;7.87;;
16173;SDS011;14031;50.158;8.626;2023-01-19T04:12:13;11.47;;;7.93;;
16173;SDS011;14031;50.158;8.626;2023-01-19T04:14:40;11.33;;;7.73;;
16173;SDS011;14031;50.158;8.626;2023-01-19T04:17:06;9.67;;;7.73;;
16173;SDS011;14031;50.158;8.626;2023-01-19T04:19:35;19.13;;;8.30;;
16173;SDS011;14031;50.158;8.626;2023-01-19T04:22:02;9.30;;;8.03;;
16173;SDS011;14031;50.158;8.626;2023-01-19T04:24:29;10.57;;;7.93;;
16173;SDS011;14031;50.158;8.626;2023-01-19T04:26:56;13.03;;;8.20;;
16173;SDS011;14031;50.158;8.626;2023-01-19T04:29:22;13.00;;;8.30;;
16173;SDS011;14031;50.158;8.626;2023-01-19T04:31:49;10.03;;;8.10;;
16173;SDS011;14031;50.158;8.626;2023-01-19T04:34:16;12.37;;;7.83;;
16173;SDS011;14031;50.158;8.626;2023-01-19T04:36:44;12.27;;;8.40;;
16173;SDS011;14031;50.158;8.626;2023-01-19T04:39:15;13.73;;;8.47;;
16173;SDS011;14031;50.158;8.626;2023-01-19T04:41:41;13.63;;;8.40;;
16173;SDS011;14031;50.158;8.626;2023-01-19T04:44:08;15.93;;;8.33;;
16173;SDS011;14031;50.158;8.626;2023-01-19T04:46:35;12.30;;;8.70;;
16173;SDS011;14031;50.158;8.626;2023-01-19T04:49:02;10.87;;;8.40;;
16173;SDS011;14031;50.158;8.626;2023-01-19T04:51:29;9.83;;;8.17;;
16173;SDS011;14031;50.158;8.626;2023-01-19T04:53:57;11.80;;;8.00;;
16173;SDS011;14031;50.158;8.626;2023-01-19T04:56:24;15.70;;;8.73;;
16173;SDS011;14031;50.158;8.626;2023-01-19T04:58:50;10.67;;;7.83;;
16173;SDS011;14031;50.158;8.626;2023-01-19T05:01:17;9.67;;;8.17;;
16173;SDS011;14031;50.158;8.626;2023-01-19T05:03:44;12.93;;;8.47;;
16173;SDS011;14031;50.158;8.626;2023-01-19T05:06:11;13.00;;;8.47;;
16173;SDS011;14031;50.158;8.626;2023-01-19T05:08:38;9.33;;;8.17;;
16173;SDS011;14031;50.158;8.626;2023-01-19T05:11:06;13.27;;;8.27;;
16173;SDS011;14031;50.158;8.626;2023-01-19T05:13:33;11.87;;;7.67;;
16173;SDS011;14031;50.158;8.626;2023-01-19T05:15:59;17.37;;;8.37;;
16173;SDS011;14031;50.158;8.626;2023-01-19T05:18:26;21.20;;;8.60;;
16173;SDS011;14031;50.158;8.626;2023-01-19T05:20:53;11.87;;;8.90;;
16173;SDS011;14031;50.158;8.626;2023-01-19T05:23:20;13.10;;;8.63;;
16173;SDS011;14031;50.158;8.626;2023-01-19T05:25:47;10.07;;;8.47;;
16173;SDS011;14031;50.158;8.626;2023-01-19T05:28:15;16.00;;;9.17;;
16173;SDS011;14031;50.158;8.626;2023-01-19T05:30:43;9.53;;;7.83;;
16173;SDS011;14031;50.158;8.626;2023-01-19T05:33:09;12.33;;;9.00;;
16173;SDS011;14031;50.158;8.626;2023-01-19T05:35:36;12.70;;;8.83;;
16173;SDS011;14031;50.158;8.626;2023-01-19T05:38:03;12.47;;;8.83;;
16173;SDS011;14031;50.158;8.626;2023-01-19T05:40:30;14.60;;;8.63;;
16173;SDS011;14031;50.158;8.626;2023-01-19T05:42:57;16.47;;;9.17;;
16173;SDS011;14031;50.158;8.626;2023-01-19T05:45:26;13.93;;;8.70;;
16173;SDS011;14031;50.158;8.626;2023-01-19T05:47:53;9.97;;;8.53;;
16173;SDS011;14031;50.158;8.626;2023-01-19T05:50:20;12.67;;;8.73;;
16173;SDS011;14031;50.158;8.626;2023-01-19T05:52:50;10.00;;;8.87;;
16173;SDS011;14031;50.158;8.626;2023-01-19T05:55:18;14.23;;;8.53;;
16173;SDS011;14031;50.158;8.626;2023-01-19T05:57:44;13.50;;;9.47;;
16173;SDS011;14031;50.158;8.626;2023-01-19T06:00:12;17.27;;;8.67;;
16173;SDS011;14031;50.158;8.626;2023-01-19T06:02:41;12.80;;;9.27;;
16173;SDS011;14031;50.158;8.626;2023-01-19T06:05:08;12.80;;;9.40;;
16173;SDS011;14031;50.158;8.626;2023-01-19T06:07:35;19.80;;;9.27;;
16173;SDS011;14031;50.158;8.626;2023-01-19T06:10:01;13.63;;;9.17;;
16173;SDS011;14031;50.158;8.626;2023-01-19T06:12:29;13.67;;;9.43;;
16173;SDS011;14031;50.158;8.626;2023-01-19T06:14:56;15.33;;;9.60;;
16173;SDS011;14031;50.158;8.626;2023-01-19T06:17:23;14.57;;;9.73;;
16173;SDS011;14031;50.158;8.626;2023-01-19T06:19:51;13.73;;;10.00;;
16173;SDS011;14031;50.158;8.626;2023-01-19T06:22:18;12.80;;;9.60;;
16173;SDS011;14031;50.158;8.626;2023-01-19T06:24:44;13.53;;;9.60;;
16173;SDS011;14031;50.158;8.626;2023-01-19T06:27:11;12.37;;;10.00;;
16173;SDS011;14031;50.158;8.626;2023-01-19T06:29:38;17.90;;;10.03;;
16173;SDS011;14031;50.158;8.626;2023-01-19T06:32:05;12.73;;;9.50;;
16173;SDS011;14031;50.158;8.626;2023-01-19T06:34:32;10.77;;;9.53;;
16173;SDS011;14031;50.158;8.626;2023-01-19T06:37:00;18.10;;;10.70;;
16173;SDS011;14031;50.158;8.626;2023-01-19T06:39:27;13.03;;;9.50;;
16173;SDS011;14031;50.158;8.626;2023-01-19T06:41:54;14.53;;;10.13;;
16173;SDS011;14031;50.158;8.626;2023-01-19T06:44:21;14.80;;;9.63;;
16173;SDS011;14031;50.158;8.626;2023-01-19T06:46:48;16.93;;;9.80;;
16173;SDS011;14031;50.158;8.626;2023-01-19T06:49:14;16.30;;;9.13;;
16173;SDS011;14031;50.158;8.626;2023-01-19T06:51:41;13.73;;;9.97;;
16173;SDS011;14031;50.158;8.626;2023-01-19T06:54:09;14.17;;;9.07;;
16173;SDS011;14031;50.158;8.626;2023-01-19T06:56:36;11.90;;;10.03;;
16173;SDS011;14031;50.158;8.626;2023-01-19T06:59:03;14.23;;;10.10;;
16173;SDS011;14031;50.158;8.626;2023-01-19T07:01:30;16.17;;;9.73;;
16173;SDS011;14031;50.158;8.626;2023-01-19T07:03:57;15.30;;;9.80;;
16173;SDS011;14031;50.158;8.626;2023-01-19T07:06:24;17.90;;;9.73;;
16173;SDS011;14031;50.158;8.626;2023-01-19T07:08:51;13.60;;;10.00;;
16173;SDS011;14031;50.158;8.626;2023-01-19T07:11:19;17.07;;;10.00;;
16173;SDS011;14031;50.158;8.626;2023-01-19T07:13:45;13.30;;;9.60;;
16173;SDS011;14031;50.158;8.626;2023-01-19T07:16:15;11.47;;;9.53;;
16173;SDS011;14031;50.158;8.626;2023-01-19T07:18:43;15.83;;;9.83;;
16173;SDS011;14031;50.158;8.626;2023-01-19T07:21:09;13.17;;;9.93;;
16173;SDS011;14031;50.158;8.626;2023-01-19T07:23:36;12.30;;;9.57;;
16173;SDS011;14031;50.158;8.626;2023-01-19T07:26:03;14.83;;;9.80;;
16173;SDS011;14031;50.158;8.626;2023-01-19T07:28:31;13.80;;;9.63;;
16173;SDS011;14031;50.158;8.626;2023-01-19T07:30:58;9.57;;;8.47;;
16173;SDS011;14031;50.158;8.626;2023-01-19T07:33:25;14.37;;;9.57;;
16173;SDS011;14031;50.158;8.626;2023-01-19T07:35:52;14.20;;;9.73;;
16173;SDS011;14031;50.158;8.626;2023-01-19T07:38:19;17.47;;;9.90;;
16173;SDS011;14031;50.158;8.626;2023-01-19T07:40:46;13.20;;;9.63;;
16173;SDS011;14031;50.158;8.626;2023-01-19T07:43:13;14.50;;;10.17;;
16173;SDS011;14031;50.158;8.626;2023-01-19T07:45:42;18.33;;;9.27;;
16173;SDS011;14031;50.158;8.626;2023-01-19T07:48:09;17.17;;;9.77;;
16173;SDS011;14031;50.158;8.626;2023-01-19T07:50:36;11.77;;;9.50;;
16173;SDS011;14031;50.158;8.626;2023-01-19T07:53:06;15.30;;;9.60;;
16173;SDS011;14031;50.158;8.626;2023-01-19T07:55:33;13.60;;;9.70;;
16173;SDS011;14031;50.158;8.626;2023-01-19T07:58:00;12.67;;;9.13;;
16173;SDS011;14031;50.158;8.626;2023-01-19T08:00:30;11.53;;;9.10;;
16173;SDS011;14031;50.158;8.626;2023-01-19T08:03:04;14.80;;;9.57;;
16173;SDS011;14031;50.158;8.626;2023-01-19T08:05:33;16.10;;;10.57;;
16173;SDS011;14031;50.158;8.626;2023-01-19T08:07:59;14.57;;;10.20;;
16173;SDS011;14031;50.158;8.626;2023-01-19T08:10:26;13.27;;;9.90;;
16173;SDS011;14031;50.158;8.626;2023-01-19T08:12:54;11.73;;;9.60;;
16173;SDS011;14031;50.158;8.626;2023-01-19T08:15:22;12.77;;;8.90;;
16173;SDS011;14031;50.158;8.626;2023-01-19T08:17:55;14.17;;;9.00;;
16173;SDS011;14031;50.158;8.626;2023-01-19T08:20:24;11.23;;;9.13;;
16173;SDS011;14031;50.158;8.626;2023-01-19T08:22:54;11.53;;;8.80;;
16173;SDS011;14031;50.158;8.626;2023-01-19T08:25:24;11.63;;;9.00;;
16173;SDS011;14031;50.158;8.626;2023-01-19T08:27:52;15.13;;;9.97;;
16173;SDS011;14031;50.158;8.626;2023-01-19T08:30:20;11.93;;;9.20;;
16173;SDS011;14031;50.158;8.626;2023-01-19T08:32:47;12.80;;;8.93;;
16173;SDS011;14031;50.158;8.626;2023-01-19T08:35:13;10.73;;;8.93;;
16173;SDS011;14031;50.158;8.626;2023-01-19T08:37:41;10.23;;;8.87;;
16173;SDS011;14031;50.158;8.626;2023-01-19T08:40:09;16.50;;;9.97;;
16173;SDS011;14031;50.158;8.626;2023-01-19T08:42:36;14.53;;;9.87;;
16173;SDS011;14031;50.158;8.626;2023-01-19T08:45:03;14.53;;;9.17;;
16173;SDS011;14031;50.158;8.626;2023-01-19T08:47:31;18.33;;;10.70;;
16173;SDS011;14031;50.158;8.626;2023-01-19T08:49:58;16.60;;;10.13;;
16173;SDS011;14031;50.158;8.626;2023-01-19T08:52:25;12.67;;;9.10;;
16173;SDS011;14031;50.158;8.626;2023-01-19T08:54:54;11.83;;;9.23;;
16173;SDS011;14031;50.158;8.626;2023-01-19T08:57:21;16.73;;;9.67;;
16173;SDS011;14031;50.158;8.626;2023-01-19T08:59:48;17.40;;;9.60;;
16173;SDS011;14031;50.158;8.626;2023-01-19T09:02:14;15.30;;;9.83;;
16173;SDS011;14031;50.158;8.626;2023-01-19T09:04:41;10.83;;;8.87;;
16173;SDS011;14031;50.158;8.626;2023-01-19T09:07:08;13.40;;;8.97;;
16173;SDS011;14031;50.158;8.626;2023-01-19T09:09:35;12.27;;;8.67;;
16173;SDS011;14031;50.158;8.626;2023-01-19T09:12:05;9.03;;;7.97;;
16173;SDS011;14031;50.158;8.626;2023-01-19T09:14:31;10.27;;;8.67;;
16173;SDS011;14031;50.158;8.626;2023-01-19T09:16:58;12.27;;;8.53;;
16173;SDS011;14031;50.158;8.626;2023-01-19T09:19:25;10.77;;;8.03;;
16173;SDS011;14031;50.158;8.626;2023-01-19T09:21:52;10.47;;;8.33;;
16173;SDS011;14031;50.158;8.626;2023-01-19T09:24:19;12.63;;;7.47;;
16173;SDS011;14031;50.158;8.626;2023-01-19T09:26:46;8.97;;;7.57;;
16173;SDS011;14031;50.158;8.626;2023-01-19T09:29:14;8.53;;;7.63;;
16173;SDS011;14031;50.158;8.626;2023-01-19T09:31:41;12.10;;;8.00;;
16173;SDS011;14031;50.158;8.626;2023-01-19T09:34:09;9.63;;;8.70;;
16173;SDS011;14031;50.158;8.626;2023-01-19T09:36:36;9.23;;;8.07;;
16173;SDS011;14031;50.158;8.626;2023-01-19T09:39:04;10.23;;;8.23;;
16173;SDS011;14031;50.158;8.626;2023-01-19T09:41:30;9.00;;;7.27;;
16173;SDS011;14031;50.158;8.626;2023-01-19T09:44:00;11.10;;;8.03;;
16173;SDS011;14031;50.158;8.626;2023-01-19T09:46:31;8.50;;;7.57;;
16173;SDS011;14031;50.158;8.626;2023-01-19T09:49:02;12.43;;;8.33;;
16173;SDS011;14031;50.158;8.626;2023-01-19T09:51:38;8.77;;;7.87;;
16173;SDS011;14031;50.158;8.626;2023-01-19T09:54:10;8.97;;;7.97;;
16173;SDS011;14031;50.158;8.626;2023-01-19T09:56:39;10.00;;;8.43;;
16173;SDS011;14031;50.158;8.626;2023-01-19T09:59:19;10.43;;;8.57;;
16173;SDS011;14031;50.158;8.626;2023-01-19T10:04:39;9.63;;;7.57;;
16173;SDS011;14031;50.158;8.626;2023-01-19T10:07:12;9.23;;;8.00;;
16173;SDS011;14031;50.158;8.626;2023-01-19T10:09:45;14.07;;;8.40;;
16173;SDS011;14031;50.158;8.626;2023-01-19T10:12:27;9.60;;;7.93;;
16173;SDS011;14031;50.158;8.626;2023-01-19T10:15:05;8.93;;;7.67;;
16173;SDS011;14031;50.158;8.626;2023-01-19T10:17:51;9.43;;;8.40;;
16173;SDS011;14031;50.158;8.626;2023-01-19T10:20:38;9.43;;;7.93;;
16173;SDS011;14031;50.158;8.626;2023-01-19T10:23:14;9.47;;;7.80;;
16173;SDS011;14031;50.158;8.626;2023-01-19T10:25:48;8.83;;;7.90;;
16173;SDS011;14031;50.158;8.626;2023-01-19T10:28:16;18.13;;;8.67;;
16173;SDS011;14031;50.158;8.626;2023-01-19T10:30:48;9.77;;;7.83;;
16173;SDS011;14031;50.158;8.626;2023-01-19T10:33:17;13.33;;;8.80;;
16173;SDS011;14031;50.158;8.626;2023-01-19T10:35:44;10.07;;;8.50;;
16173;SDS011;14031;50.158;8.626;2023-01-19T10:38:13;11.83;;;9.20;;
16173;SDS011;14031;50.158;8.626;2023-01-19T10:40:45;11.80;;;9.07;;
16173;SDS011;14031;50.158;8.626;2023-01-19T10:43:34;9.63;;;8.63;;
16173;SDS011;14031;50.158;8.626;2023-01-19T10:46:04;13.23;;;8.97;;
16173;SDS011;14031;50.158;8.626;2023-01-19T10:48:37;11.43;;;8.93;;
16173;SDS011;14031;50.158;8.626;2023-01-19T10:51:06;10.80;;;9.13;;
16173;SDS011;14031;50.158;8.626;2023-01-19T10:53:34;17.43;;;9.00;;
16173;SDS011;14031;50.158;8.626;2023-01-19T10:56:10;10.13;;;7.37;;
16173;SDS011;14031;50.158;8.626;2023-01-19T10:58:39;8.00;;;7.20;;
16173;SDS011;14031;50.158;8.626;2023-01-19T11:01:11;8.67;;;6.77;;
16173;SDS011;14031;50.158;8.626;2023-01-19T11:03:40;7.60;;;6.77;;
16173;SDS011;14031;50.158;8.626;2023-01-19T11:06:26;6.37;;;5.53;;
16173;SDS011;14031;50.158;8.626;2023-01-19T11:09:08;6.83;;;5.77;;
16173;SDS011;14031;50.158;8.626;2023-01-19T11:11:40;5.67;;;5.17;;
16173;SDS011;14031;50.158;8.626;2023-01-19T11:14:09;6.73;;;6.00;;
16173;SDS011;14031;50.158;8.626;2023-01-19T11:16:38;6.37;;;5.07;;
16173;SDS011;14031;50.158;8.626;2023-01-19T11:19:13;6.27;;;5.60;;
16173;SDS011;14031;50.158;8.626;2023-01-19T11:21:49;6.57;;;5.47;;
16173;SDS011;14031;50.158;8.626;2023-01-19T11:24:16;7.03;;;5.53;;
16173;SDS011;14031;50.158;8.626;2023-01-19T11:26:44;6.57;;;5.30;;
16173;SDS011;14031;50.158;8.626;2023-01-19T11:29:14;6.10;;;5.53;;
16173;SDS011;14031;50.158;8.626;2023-01-19T11:31:43;7.47;;;5.50;;
16173;SDS011;14031;50.158;8.626;2023-01-19T11:34:22;5.70;;;5.20;;
16173;SDS011;14031;50.158;8.626;2023-01-19T11:36:55;5.27;;;4.87;;
16173;SDS011;14031;50.158;8.626;2023-01-19T11:39:24;5.30;;;4.93;;
16173;SDS011;14031;50.158;8.626;2023-01-19T11:41:52;7.73;;;5.43;;
16173;SDS011;14031;50.158;8.626;2023-01-19T11:44:25;6.03;;;5.40;;
16173;SDS011;14031;50.158;8.626;2023-01-19T11:46:55;5.37;;;4.97;;
16173;SDS011;14031;50.158;8.626;2023-01-19T11:49:27;7.33;;;5.30;;
16173;SDS011;14031;50.158;8.626;2023-01-19T11:52:03;5.10;;;4.63;;
16173;SDS011;14031;50.158;8.626;2023-01-19T11:54:34;9.10;;;5.23;;
16173;SDS011;14031;50.158;8.626;2023-01-19T11:57:09;5.57;;;5.17;;
16173;SDS011;14031;50.158;8.626;2023-01-19T11:59:38;6.60;;;5.93;;
16173;SDS011;14031;50.158;8.626;2023-01-19T12:02:10;6.47;;;5.50;;
16173;SDS011;14031;50.158;8.626;2023-01-19T12:04:47;7.40;;;5.90;;
16173;SDS011;14031;50.158;8.626;2023-01-19T12:07:15;6.33;;;5.77;;
16173;SDS011;14031;50.158;8.626;2023-01-19T12:09:47;5.73;;;5.20;;
16173;SDS011;14031;50.158;8.626;2023-01-19T12:12:20;8.83;;;5.43;;
16173;SDS011;14031;50.158;8.626;2023-01-19T12:14:53;5.63;;;5.13;;
16173;SDS011;14031;50.158;8.626;2023-01-19T12:17:25;5.60;;;5.17;;
16173;SDS011;14031;50.158;8.626;2023-01-19T12:19:55;4.93;;;4.63;;
16173;SDS011;14031;50.158;8.626;2023-01-19T12:22:28;5.83;;;5.33;;
16173;SDS011;14031;50.158;8.626;2023-01-19T12:25:09;7.97;;;5.30;;
16173;SDS011;14031;50.158;8.626;2023-01-19T12:27:42;5.47;;;4.97;;
16173;SDS011;14031;50.158;8.626;2023-01-19T12:30:15;6.53;;;5.20;;
16173;SDS011;14031;50.158;8.626;2023-01-19T12:32:44;5.43;;;4.97;;
16173;SDS011;14031;50.158;8.626;2023-01-19T12:44:14;6.23;;;5.63;;
16173;SDS011;14031;50.158;8.626;2023-01-19T12:46:46;7.80;;;6.80;;
16173;SDS011;14031;50.158;8.626;2023-01-19T12:49:25;8.37;;;5.73;;
16173;SDS011;14031;50.158;8.626;2023-01-19T12:52:08;6.77;;;6.13;;
16173;SDS011;14031;50.158;8.626;2023-01-19T12:54:40;10.80;;;6.37;;
16173;SDS011;14031;50.158;8.626;2023-01-19T12:57:16;6.23;;;5.67;;
16173;SDS011;14031;50.158;8.626;2023-01-19T12:59:45;8.30;;;5.83;;
16173;SDS011;14031;50.158;8.626;2023-01-19T13:05:21;7.93;;;5.53;;
16173;SDS011;14031;50.158;8.626;2023-01-19T13:13:42;6.67;;;5.77;;
16173;SDS011;14031;50.158;8.626;2023-01-19T13:19:14;6.10;;;5.50;;
16173;SDS011;14031;50.158;8.626;2023-01-19T13:21:43;8.17;;;5.23;;
16173;SDS011;14031;50.158;8.626;2023-01-19T13:24:12;6.93;;;5.67;;
16173;SDS011;14031;50.158;8.626;2023-01-19T13:26:42;6.93;;;6.07;;
16173;SDS011;14031;50.158;8.626;2023-01-19T13:29:21;6.77;;;5.87;;
16173;SDS011;14031;50.158;8.626;2023-01-19T13:31:53;7.67;;;5.77;;
16173;SDS011;14031;50.158;8.626;2023-01-19T13:34:26;5.70;;;5.10;;
16173;SDS011;14031;50.158;8.626;2023-01-19T13:36:55;7.43;;;5.73;;
16173;SDS011;14031;50.158;8.626;2023-01-19T13:39:25;5.17;;;4.77;;
16173;SDS011;14031;50.158;8.626;2023-01-19T13:41:56;5.67;;;5.27;;
16173;SDS011;14031;50.158;8.626;2023-01-19T13:44:25;5.80;;;5.30;;
16173;SDS011;14031;50.158;8.626;2023-01-19T13:46:54;5.93;;;5.37;;
16173;SDS011;14031;50.158;8.626;2023-01-19T13:49:25;5.60;;;5.10;;
16173;SDS011;14031;50.158;8.626;2023-01-19T13:52:10;5.33;;;4.87;;
16173;SDS011;14031;50.158;8.626;2023-01-19T13:54:48;6.07;;;5.63;;
16173;SDS011;14031;50.158;8.626;2023-01-19T13:57:24;6.27;;;5.67;;
16173;SDS011;14031;50.158;8.626;2023-01-19T14:00:03;6.13;;;5.63;;
16173;SDS011;14031;50.158;8.626;2023-01-19T14:02:32;8.23;;;5.50;;
16173;SDS011;14031;50.158;8.626;2023-01-19T14:05:10;5.43;;;4.93;;
16173;SDS011;14031;50.158;8.626;2023-01-19T14:07:38;7.30;;;5.83;;
16173;SDS011;14031;50.158;8.626;2023-01-19T14:10:06;6.43;;;5.83;;
16173;SDS011;14031;50.158;8.626;2023-01-19T14:12:39;12.23;;;6.17;;
16173;SDS011;14031;50.158;8.626;2023-01-19T14:15:07;6.60;;;6.00;;
16173;SDS011;14031;50.158;8.626;2023-01-19T14:17:38;8.80;;;6.40;;
16173;SDS011;14031;50.158;8.626;2023-01-19T14:20:06;8.10;;;6.40;;
16173;SDS011;14031;50.158;8.626;2023-01-19T14:22:48;6.03;;;5.40;;
16173;SDS011;14031;50.158;8.626;2023-01-19T14:25:27;5.80;;;5.23;;
16173;SDS011;14031;50.158;8.626;2023-01-19T14:30:52;6.57;;;5.97;;
16173;SDS011;14031;50.158;8.626;2023-01-19T14:33:33;8.47;;;5.53;;
16173;SDS011;14031;50.158;8.626;2023-01-19T14:36:09;9.13;;;6.03;;
16173;SDS011;14031;50.158;8.626;2023-01-19T14:38:47;7.77;;;5.53;;
16173;SDS011;14031;50.158;8.626;2023-01-19T14:41:21;6.70;;;5.47;;
16173;SDS011;14031;50.158;8.626;2023-01-19T14:43:52;6.30;;;5.43;;
16173;SDS011;14031;50.158;8.626;2023-01-19T14:46:20;10.23;;;6.13;;
16173;SDS011;14031;50.158;8.626;2023-01-19T14:48:49;7.43;;;5.70;;
16173;SDS011;14031;50.158;8.626;2023-01-19T14:51:18;9.13;;;6.10;;
16173;SDS011;14031;50.158;8.626;2023-01-19T14:53:49;10.40;;;6.30;;
16173;SDS011;14031;50.158;8.626;2023-01-19T14:56:25;7.23;;;5.90;;
16173;SDS011;14031;50.158;8.626;2023-01-19T14:58:55;6.57;;;5.93;;
16173;SDS011;14031;50.158;8.626;2023-01-19T15:01:23;9.87;;;6.57;;
16173;SDS011;14031;50.158;8.626;2023-01-19T15:03:52;8.13;;;7.33;;
16173;SDS011;14031;50.158;8.626;2023-01-19T15:06:20;10.47;;;6.47;;
16173;SDS011;14031;50.158;8.626;2023-01-19T15:08:48;16.30;;;7.00;;
16173;SDS011;14031;50.158;8.626;2023-01-19T15:11:18;8.97;;;6.87;;
16173;SDS011;14031;50.158;8.626;2023-01-19T15:13:48;8.63;;;6.80;;
16173;SDS011;14031;50.158;8.626;2023-01-19T15:16:17;10.53;;;6.43;;
16173;SDS011;14031;50.158;8.626;2023-01-19T15:18:44;10.37;;;6.33;;
16173;SDS011;14031;50.158;8.626;2023-01-19T15:21:11;9.30;;;6.83;;
16173;SDS011;14031;50.158;8.626;2023-01-19T15:23:40;9.10;;;6.10;;
16173;SDS011;14031;50.158;8.626;2023-01-19T15:26:09;13.30;;;7.60;;